Observation data for Sundown on 05/25/2019      Previous  Date  Next       Current Mesonet Observations  Soil Data  Daily Summary Page  Observations in Plain Language
KSDS 250500Z 15007KT 20/17 A2998 RMK A01 T01990165  RH  085%=      5-min Rain = 0
KSDS 250505Z 14006KT 20/17 A2998 RMK A01 T01980165  RH  086%=      5-min Rain = 0
KSDS 250510Z 12006KT 20/17 A2998 RMK A01 T01960166  RH  087%=      5-min Rain = 0
KSDS 250515Z 11006KT 19/17 A2998 RMK A01 T01940166  RH  088%=      5-min Rain = 0
KSDS 250520Z 10007KT 19/17 A2998 RMK A01 T01920165  RH  089%=      5-min Rain = 0
KSDS 250525Z 10007KT 19/17 A2998 RMK A01 T01910166  RH  090%=      5-min Rain = 0
KSDS 250530Z 10007KT 19/17 A2998 RMK A01 T01900166  RH  090%=      5-min Rain = 0
KSDS 250535Z 11008KT 19/17 A2998 RMK A01 T01890166  RH  091%=      5-min Rain = 0
KSDS 250540Z 12007KT 19/17 A2998 RMK A01 T01890166  RH  091%=      5-min Rain = 0
KSDS 250545Z 12006KT 19/17 A2998 RMK A01 T01880166  RH  092%=      5-min Rain = 0
KSDS 250550Z 12006KT 19/17 A2998 RMK A01 T01860166  RH  092%=      5-min Rain = 0
KSDS 250555Z 12007KT 19/17 A2998 RMK A01 T01850166  RH  093%=      5-min Rain = 0
KSDS 250600Z 11007KT 18/17 A2997 RMK A01 T01840165  RH  093%=      5-min Rain = 0
KSDS 250605Z 10007KT 18/17 A2997 RMK A01 T01830165  RH  094%=      5-min Rain = 0
KSDS 250610Z 10006KT 18/17 A2997 RMK A01 T01830165  RH  094%=      5-min Rain = 0
KSDS 250615Z 11006KT 18/17 A2997 RMK A01 T01820166  RH  094%=      5-min Rain = 0
KSDS 250620Z 11006KT 18/17 A2998 RMK A01 T01820166  RH  095%=      5-min Rain = 0
KSDS 250625Z 12006KT 18/17 A2998 RMK A01 T01810165  RH  095%=      5-min Rain = 0
KSDS 250630Z 12006KT 18/17 A2997 RMK A01 T01800165  RH  095%=      5-min Rain = 0
KSDS 250635Z 11006KT 18/16 A2997 RMK A01 T01790164  RH  095%=      5-min Rain = 0
KSDS 250640Z 10006KT 18/16 A2997 RMK A01 T01780163  RH  095%=      5-min Rain = 0
KSDS 250645Z 10006KT 18/16 A2997 RMK A01 T01770163  RH  096%=      5-min Rain = 0
KSDS 250650Z 10006KT 18/16 A2997 RMK A01 T01770164  RH  096%=      5-min Rain = 0
KSDS 250655Z 11006KT 18/16 A2997 RMK A01 T01770164  RH  096%=      5-min Rain = 0
KSDS 250700Z 11006KT 18/16 A2997 RMK A01 T01770164  RH  097%=      5-min Rain = 0
KSDS 250705Z 11007KT 18/16 A2996 RMK A01 T01760164  RH  097%=      5-min Rain = 0
KSDS 250710Z 11006KT 18/16 A2996 RMK A01 T01760164  RH  097%=      5-min Rain = 0
KSDS 250715Z 11006KT 18/16 A2996 RMK A01 T01760164  RH  097%=      5-min Rain = 0
KSDS 250720Z 10006KT 18/16 A2996 RMK A01 T01760164  RH  097%=      5-min Rain = 0
KSDS 250725Z 10006KT 18/17 A2996 RMK A01 T01760165  RH  097%=      5-min Rain = 0
KSDS 250730Z 10006KT 18/17 A2996 RMK A01 T01760165  RH  098%=      5-min Rain = 0
KSDS 250735Z 11005KT 18/17 A2996 RMK A01 T01760165  RH  098%=      5-min Rain = 0
KSDS 250740Z 11006KT 18/17 A2996 RMK A01 T01760165  RH  098%=      5-min Rain = 0
KSDS 250745Z 11006KT 18/17 A2996 RMK A01 T01770165  RH  098%=      5-min Rain = 0
KSDS 250750Z 11006KT 18/17 A2996 RMK A01 T01770166  RH  098%=      5-min Rain = 0
KSDS 250755Z 11006KT 18/17 A2996 RMK A01 T01780167  RH  098%=      5-min Rain = 0
KSDS 250800Z 11006KT 18/17 A2996 RMK A01 T01780167  RH  098%=      5-min Rain = 0
KSDS 250805Z 11006KT 18/17 A2996 RMK A01 T01790168  RH  098%=      5-min Rain = 0
KSDS 250810Z 11006KT 18/17 A2996 RMK A01 T01790168  RH  098%=      5-min Rain = 0
KSDS 250815Z 11006KT 18/17 A2995 RMK A01 T01800169  RH  098%=      5-min Rain = 0
KSDS 250820Z 11006KT 18/17 A2995 RMK A01 T01800169  RH  098%=      5-min Rain = 0
KSDS 250825Z 10005KT 18/17 A2995 RMK A01 T01800168  RH  098%=      5-min Rain = 0
KSDS 250830Z 10006KT 18/17 A2995 RMK A01 T01800168  RH  098%=      5-min Rain = 0
KSDS 250835Z 10005KT 18/17 A2995 RMK A01 T01800169  RH  098%=      5-min Rain = 0
KSDS 250840Z 11005KT 18/17 A2995 RMK A01 T01810170  RH  098%=      5-min Rain = 0
KSDS 250845Z 11005KT 18/17 A2995 RMK A01 T01820171  RH  098%=      5-min Rain = 0
KSDS 250850Z 11006KT 18/17 A2995 RMK A01 T01830171  RH  098%=      5-min Rain = 0
KSDS 250855Z 11005KT 18/17 A2995 RMK A01 T01840172  RH  098%=      5-min Rain = 0
KSDS 250900Z 10006KT 18/17 A2995 RMK A01 T01840172  RH  098%=      5-min Rain = 0
KSDS 250905Z 11006KT 19/17 A2995 RMK A01 T01850173  RH  097%=      5-min Rain = 0
KSDS 250910Z 11006KT 19/17 A2995 RMK A01 T01850173  RH  097%=      5-min Rain = 0
KSDS 250915Z 11007KT 19/17 A2995 RMK A01 T01850173  RH  097%=      5-min Rain = 0
KSDS 250920Z 11006KT 19/17 A2995 RMK A01 T01860174  RH  097%=      5-min Rain = 0
KSDS 250925Z 09004KT 19/17 A2995 RMK A01 T01860174  RH  097%=      5-min Rain = 0
KSDS 250930Z 09004KT 19/17 A2995 RMK A01 T01860173  RH  097%=      5-min Rain = 0
KSDS 250935Z 10005KT 19/17 A2995 RMK A01 T01850173  RH  097%=      5-min Rain = 0
KSDS 250940Z 10005KT 19/17 A2995 RMK A01 T01850173  RH  097%=      5-min Rain = 0
KSDS 250945Z 10004KT 19/17 A2995 RMK A01 T01850173  RH  097%=      5-min Rain = 0
KSDS 250950Z 09006KT 19/17 A2995 RMK A01 T01860174  RH  097%=      5-min Rain = 0
KSDS 250955Z 09005KT 19/17 A2995 RMK A01 T01850173  RH  097%=      5-min Rain = 0
KSDS 251000Z 09005KT 19/17 A2996 RMK A01 T01850173  RH  097%=      5-min Rain = 0
KSDS 251005Z 10005KT 19/17 A2996 RMK A01 T01850173  RH  098%=      5-min Rain = 0
KSDS 251010Z 10006KT 19/17 A2996 RMK A01 T01850173  RH  098%=      5-min Rain = 0
KSDS 251015Z 11006KT 19/17 A2996 RMK A01 T01860174  RH  098%=      5-min Rain = 0
KSDS 251020Z 11006KT 19/17 A2996 RMK A01 T01860174  RH  098%=      5-min Rain = 0
KSDS 251025Z 11006KT 19/18 A2996 RMK A01 T01870175  RH  098%=      5-min Rain = 0
KSDS 251030Z 11006KT 19/18 A2996 RMK A01 T01880176  RH  098%=      5-min Rain = 0
KSDS 251035Z 12007KT 19/18 A2996 RMK A01 T01890177  RH  098%=      5-min Rain = 0
KSDS 251040Z 12007KT 19/18 A2996 RMK A01 T01900178  RH  098%=      5-min Rain = 0
KSDS 251045Z 12008KT 19/18 A2997 RMK A01 T01920179  RH  098%=      5-min Rain = 0
KSDS 251050Z 13009KT 19/18 A2997 RMK A01 T01940181  RH  097%=      5-min Rain = 0
KSDS 251055Z 13010KT 20/18 A2997 RMK A01 T01950181  RH  096%=      5-min Rain = 0
KSDS 251100Z 13011KT 20/18 A2997 RMK A01 T01960180  RH  095%=      5-min Rain = 0
KSDS 251105Z 13010KT 20/18 A2997 RMK A01 T01970180  RH  095%=      5-min Rain = 0
KSDS 251110Z 13010KT 20/18 A2997 RMK A01 T01970179  RH  095%=      5-min Rain = 0
KSDS 251115Z 13008KT 20/18 A2997 RMK A01 T01960179  RH  095%=      5-min Rain = 0
KSDS 251120Z 13009KT 20/18 A2997 RMK A01 T01960179  RH  095%=      5-min Rain = 0
KSDS 251125Z 13008KT 20/18 A2997 RMK A01 T01960179  RH  095%=      5-min Rain = 0
KSDS 251130Z 13008KT 20/18 A2998 RMK A01 T01960180  RH  095%=      5-min Rain = 0
KSDS 251135Z 13008KT 20/18 A2998 RMK A01 T01970180  RH  095%=      5-min Rain = 0
KSDS 251140Z 13008KT 20/18 A2998 RMK A01 T01970180  RH  095%=      5-min Rain = 0
KSDS 251145Z 14008KT 20/18 A2998 RMK A01 T01970180  RH  095%=      5-min Rain = 0
KSDS 251150Z 13009KT 20/18 A2998 RMK A01 T01970180  RH  095%=      5-min Rain = 0
KSDS 251155Z 13009G14KT 20/18 A2998 RMK A01 T01970180  RH  095%=      5-min Rain = 0
KSDS 251200Z 13009KT 20/18 A2998 RMK A01 T01970180  RH  095%=      5-min Rain = 0
KSDS 251205Z 14010KT 20/18 A2999 RMK A01 T01970180  RH  095%=      5-min Rain = 0
KSDS 251210Z 14009KT 20/18 A2999 RMK A01 T01970180  RH  095%=      5-min Rain = 0
KSDS 251215Z 14008KT 20/18 A2999 RMK A01 T01970181  RH  095%=      5-min Rain = 0
KSDS 251220Z 13008KT 20/18 A2999 RMK A01 T01970181  RH  095%=      5-min Rain = 0
KSDS 251225Z 13008KT 20/18 A2999 RMK A01 T01980181  RH  095%=      5-min Rain = 0
KSDS 251230Z 13008KT 20/18 A2999 RMK A01 T01980181  RH  095%=      5-min Rain = 0
KSDS 251235Z 13008KT 20/18 A2999 RMK A01 T01980182  RH  095%=      5-min Rain = 0
KSDS 251240Z 13008KT 20/18 A30 RMK A01 T01980182  RH  095%=      5-min Rain = 0
KSDS 251245Z 13008KT 20/18 A30 RMK A01 T01980182  RH  095%=      5-min Rain = 0
KSDS 251250Z 13009KT 20/18 A30 RMK A01 T01980183  RH  096%=      5-min Rain = 0
KSDS 251255Z 13009KT 20/18 A30 RMK A01 T01980183  RH  096%=      5-min Rain = 0
KSDS 251300Z 13009KT 20/18 A30 RMK A01 T01980183  RH  096%=      5-min Rain = 0
KSDS 251305Z 13010KT 20/18 A30 RMK A01 T01980184  RH  097%=      5-min Rain = 0
KSDS 251310Z 13010KT 20/18 A3001 RMK A01 T01970184  RH  097%=      5-min Rain = 0
KSDS 251315Z 13010KT 20/18 A3001 RMK A01 T01980184  RH  097%=      5-min Rain = 0
KSDS 251320Z 13009KT 20/18 A3001 RMK A01 T01980184  RH  097%=      5-min Rain = 0
KSDS 251325Z 13007KT 20/19 A3001 RMK A01 T01980185  RH  097%=      5-min Rain = 0
KSDS 251330Z 14009KT 20/19 A3001 RMK A01 T01980185  RH  097%=      5-min Rain = 0
KSDS 251335Z 14009KT 20/19 A3001 RMK A01 T01980186  RH  097%=      5-min Rain = 0
KSDS 251340Z 14010KT 20/19 A3001 RMK A01 T01990186  RH  097%=      5-min Rain = 0
KSDS 251345Z 14009KT 20/19 A3001 RMK A01 T01990186  RH  097%=      5-min Rain = 0
KSDS 251350Z 14010KT 20/19 A3002 RMK A01 T02000187  RH  097%=      5-min Rain = 0
KSDS 251355Z 14008KT 20/19 A3001 RMK A01 T02000187  RH  097%=      5-min Rain = 0
KSDS 251400Z 14008G13KT 20/19 A3001 RMK A01 T02010188  RH  097%=      5-min Rain = 0
KSDS 251405Z 14010KT 20/19 A3001 RMK A01 T02020188  RH  097%=      5-min Rain = 0
KSDS 251410Z 14009KT 20/19 A3001 RMK A01 T02030189  RH  097%=      5-min Rain = 0
KSDS 251415Z 14011KT 20/19 A3001 RMK A01 T02030188  RH  096%=      5-min Rain = 0
KSDS 251420Z 14011KT 20/19 A3002 RMK A01 T02040188  RH  096%=      5-min Rain = 0
KSDS 251425Z 14010KT 21/19 A3002 RMK A01 T02050189  RH  095%=      5-min Rain = 0
KSDS 251430Z 14011G16KT 21/19 A3001 RMK A01 T02060189  RH  095%=      5-min Rain = 0
KSDS 251435Z 14012KT 21/19 A3001 RMK A01 T02070188  RH  094%=      5-min Rain = 0
KSDS 251440Z 14012KT 21/19 A3001 RMK A01 T02100189  RH  093%=      5-min Rain = 0
KSDS 251445Z 14013KT 21/19 A3001 RMK A01 T02100188  RH  092%=      5-min Rain = 0
KSDS 251450Z 14014KT 21/19 A3001 RMK A01 T02090187  RH  092%=      5-min Rain = 0
KSDS 251455Z 14014G20KT 21/19 A3001 RMK A01 T02120189  RH  091%=      5-min Rain = 0
KSDS 251500Z 14015G21KT 21/19 A3001 RMK A01 T02140187  RH  090%=      5-min Rain = 0
KSDS 251505Z 15012G18KT 21/19 A3002 RMK A01 T02140188  RH  089%=      5-min Rain = 0
KSDS 251510Z 15014G19KT 22/19 A3002 RMK A01 T02170188  RH  088%=      5-min Rain = 0
KSDS 251515Z 14015KT 22/19 A3002 RMK A01 T02190188  RH  087%=      5-min Rain = 0
KSDS 251520Z 14016KT 22/19 A3002 RMK A01 T02200187  RH  086%=      5-min Rain = 0
KSDS 251525Z 15015G20KT 22/19 A3002 RMK A01 T02220187  RH  085%=      5-min Rain = 0
KSDS 251530Z 14015G21KT 22/19 A3001 RMK A01 T02230187  RH  085%=      5-min Rain = 0
KSDS 251535Z 14014G21KT 22/19 A3002 RMK A01 T02230187  RH  085%=      5-min Rain = 0
KSDS 251540Z 15014G20KT 22/19 A3002 RMK A01 T02240187  RH  084%=      5-min Rain = 0
KSDS 251545Z 15014G19KT 23/19 A3002 RMK A01 T02260188  RH  083%=      5-min Rain = 0
KSDS 251550Z 14013G18KT 23/19 A3002 RMK A01 T02260188  RH  084%=      5-min Rain = 0
KSDS 251555Z 14014KT 22/19 A3001 RMK A01 T02230186  RH  084%=      5-min Rain = 0
KSDS 251600Z 14013G18KT 23/19 A3001 RMK A01 T02260187  RH  083%=      5-min Rain = 0
KSDS 251605Z 14016G21KT 23/19 A3002 RMK A01 T02280186  RH  082%=      5-min Rain = 0
KSDS 251610Z 14016G21KT 23/19 A3001 RMK A01 T02310187  RH  080%=      5-min Rain = 0
KSDS 251615Z 14015KT 24/19 A3001 RMK A01 T02350188  RH  079%=      5-min Rain = 0
KSDS 251620Z 15016G21KT 24/19 A3001 RMK A01 T02390188  RH  077%=      5-min Rain = 0
KSDS 251625Z 15016KT 24/19 A3001 RMK A01 T02390188  RH  078%=      5-min Rain = 0
KSDS 251630Z 15016G22KT 24/19 A3001 RMK A01 T02420188  RH  076%=      5-min Rain = 0
KSDS 251635Z 15014G19KT 24/19 A3001 RMK A01 T02390188  RH  077%=      5-min Rain = 0
KSDS 251640Z 15016G21KT 24/19 A3001 RMK A01 T02380187  RH  077%=      5-min Rain = 0
KSDS 251645Z 15018G23KT 24/19 A30 RMK A01 T02370185  RH  076%=      5-min Rain = 0
KSDS 251650Z 15017G22KT 24/19 A30 RMK A01 T02370185  RH  077%=      5-min Rain = 0
KSDS 251655Z 15015G23KT 24/19 A30 RMK A01 T02350187  RH  078%=      5-min Rain = 0
KSDS 251700Z 14015G20KT 24/19 A30 RMK A01 T02360187  RH  078%=      5-min Rain = 0
KSDS 251705Z 15018KT 24/19 A30 RMK A01 T02370186  RH  077%=      5-min Rain = 0
KSDS 251710Z 16017G22KT 24/19 A30 RMK A01 T02440186  RH  074%=      5-min Rain = 0
KSDS 251715Z 15017G22KT 24/19 A30 RMK A01 T02400186  RH  076%=      5-min Rain = 0
KSDS 251720Z 15016G22KT 24/19 A2999 RMK A01 T02360186  RH  077%=      5-min Rain = 0
KSDS 251725Z 15017G22KT 23/18 A2999 RMK A01 T02340183  RH  077%=      5-min Rain = 0
KSDS 251730Z 14017G23KT 23/19 A2999 RMK A01 T02330185  RH  079%=      5-min Rain = 0
KSDS 251735Z 14019G25KT 23/18 A2999 RMK A01 T02310184  RH  079%=      5-min Rain = 0
KSDS 251740Z 14017G24KT 23/19 A2999 RMK A01 T02320186  RH  080%=      5-min Rain = 0
KSDS 251745Z 15018G25KT 23/19 A2998 RMK A01 T02310185  RH  079%=      5-min Rain = 0
KSDS 251750Z 15019G24KT 23/19 A2997 RMK A01 T02300185  RH  080%=      5-min Rain = 0
KSDS 251755Z 15017G23KT 23/19 A2997 RMK A01 T02320185  RH  079%=      5-min Rain = 0
KSDS 251800Z 15019G25KT 23/18 A2998 RMK A01 T02320183  RH  078%=      5-min Rain = 0
KSDS 251805Z 15019G26KT 23/19 A2997 RMK A01 T02340185  RH  078%=      5-min Rain = 0
KSDS 251810Z 15019G26KT 24/19 A2997 RMK A01 T02370186  RH  077%=      5-min Rain = 0
KSDS 251815Z 16019G26KT 24/19 A2997 RMK A01 T02420186  RH  075%=      5-min Rain = 0
KSDS 251820Z 16021G26KT 25/19 A2997 RMK A01 T02470186  RH  073%=      5-min Rain = 0
KSDS 251825Z 16020G28KT 26/19 A2997 RMK A01 T02640187  RH  066%=      5-min Rain = 0
KSDS 251830Z 15020G26KT 26/19 A2998 RMK A01 T02630187  RH  066%=      5-min Rain = 0
KSDS 251835Z 15016G23KT 26/19 A2998 RMK A01 T02570189  RH  069%=      5-min Rain = 0
KSDS 251840Z 16018G24KT 26/19 A2998 RMK A01 T02580188  RH  069%=      5-min Rain = 0
KSDS 251845Z 15018G23KT 25/19 A2997 RMK A01 T02540187  RH  070%=      5-min Rain = 0
KSDS 251850Z 16018G23KT 25/18 A2997 RMK A01 T02540184  RH  069%=      5-min Rain = 0
KSDS 251855Z 15017G22KT 26/19 A2997 RMK A01 T02620187  RH  067%=      5-min Rain = 0
KSDS 251900Z 16014G21KT 27/19 A2996 RMK A01 T02690189  RH  065%=      5-min Rain = 0
KSDS 251905Z 16018G25KT 27/19 A2996 RMK A01 T02710186  RH  063%=      5-min Rain = 0
KSDS 251910Z 16017G23KT 27/19 A2996 RMK A01 T02690185  RH  064%=      5-min Rain = 0
KSDS 251915Z 17018G24KT 27/18 A2996 RMK A01 T02670183  RH  063%=      5-min Rain = 0
KSDS 251920Z 16017G23KT 27/19 A2995 RMK A01 T02720185  RH  062%=      5-min Rain = 0
KSDS 251925Z 17017G23KT 28/19 A2995 RMK A01 T02770185  RH  060%=      5-min Rain = 0
KSDS 251930Z 16018G23KT 28/18 A2995 RMK A01 T02770183  RH  059%=      5-min Rain = 0
KSDS 251935Z 16018G23KT 27/18 A2994 RMK A01 T02720182  RH  061%=      5-min Rain = 0
KSDS 251940Z 16018KT 28/18 A2994 RMK A01 T02790182  RH  058%=      5-min Rain = 0
KSDS 251945Z 17018G23KT 28/18 A2994 RMK A01 T02750180  RH  059%=      5-min Rain = 0
KSDS 251950Z 16019G24KT 28/18 A2993 RMK A01 T02830182  RH  057%=      5-min Rain = 0
KSDS 251955Z 16019G26KT 28/18 A2992 RMK A01 T02830181  RH  057%=      5-min Rain = 0
KSDS 252000Z 16021G28KT 29/18 A2992 RMK A01 T02850179  RH  056%=      5-min Rain = 0
KSDS 252005Z 16019G24KT 29/18 A2992 RMK A01 T02880181  RH  055%=      5-min Rain = 0
KSDS 252010Z 16019G26KT 29/18 A2992 RMK A01 T02890180  RH  055%=      5-min Rain = 0
KSDS 252015Z 16020G26KT 29/18 A2992 RMK A01 T02870178  RH  054%=      5-min Rain = 0
KSDS 252020Z 16018G24KT 29/18 A2992 RMK A01 T02890178  RH  054%=      5-min Rain = 0
KSDS 252025Z 17018G25KT 29/18 A2992 RMK A01 T02900177  RH  053%=      5-min Rain = 0
KSDS 252030Z 17020G27KT 29/17 A2992 RMK A01 T02880174  RH  053%=      5-min Rain = 0
KSDS 252035Z 17018G24KT 28/17 A2992 RMK A01 T02830174  RH  054%=      5-min Rain = 0
KSDS 252040Z 16019G25KT 29/18 A2992 RMK A01 T02910176  RH  053%=      5-min Rain = 0
KSDS 252045Z 16018G24KT 29/17 A2992 RMK A01 T02870174  RH  053%=      5-min Rain = 0
KSDS 252050Z 16019G25KT 29/18 A2992 RMK A01 T02910175  RH  052%=      5-min Rain = 0
KSDS 252055Z 15020G26KT 30/18 A2991 RMK A01 T02950176  RH  051%=      5-min Rain = 0
KSDS 252100Z 16019G26KT 29/18 A2991 RMK A01 T02940178  RH  052%=      5-min Rain = 0
KSDS 252105Z 16022G30KT 29/17 A2991 RMK A01 T02880173  RH  053%=      5-min Rain = 0
KSDS 252110Z 16022G28KT 29/18 A299 RMK A01 T02920176  RH  052%=      5-min Rain = 0
KSDS 252115Z 16022G27KT 29/17 A299 RMK A01 T02930174  RH  052%=      5-min Rain = 0
KSDS 252120Z 16023G30KT 30/17 A299 RMK A01 T02960173  RH  050%=      5-min Rain = 0
KSDS 252125Z 15021G27KT 30/17 A2989 RMK A01 T02970173  RH  050%=      5-min Rain = 0
KSDS 252130Z 16021G27KT 29/17 A2989 RMK A01 T02890171  RH  051%=      5-min Rain = 0
KSDS 252135Z 16024G30KT 28/17 A2989 RMK A01 T02820168  RH  052%=      5-min Rain = 0
KSDS 252140Z 16023G30KT 28/17 A299 RMK A01 T02800171  RH  054%=      5-min Rain = 0
KSDS 252145Z 15021G27KT 28/17 A299 RMK A01 T02770171  RH  055%=      5-min Rain = 0
KSDS 252150Z 16020G27KT 27/17 A299 RMK A01 T02730173  RH  057%=      5-min Rain = 0
KSDS 252155Z 16023G31KT 27/17 A2989 RMK A01 T02690173  RH  058%=      5-min Rain = 0
KSDS 252200Z 16026G32KT 26/18 A2988 RMK A01 T02590177  RH  064%=      5-min Rain = 0
KSDS 252205Z 16029G47KT 24/19 A299 RMK A01 T02350188  RH  079%=      5-min Rain = 0.02
KSDS 252210Z 17025G35KT 23/19 A2991 RMK A01 T02250192  RH  086%=      5-min Rain = 0.02
KSDS 252215Z 18024G33KT 22/19 A2991 RMK A01 T02220194  RH  089%=      5-min Rain = 0.02
KSDS 252220Z 19022G30KT 22/19 A299 RMK A01 T02180191  RH  089%=      5-min Rain = 0.01
KSDS 252225Z 20015G25KT 21/19 A2989 RMK A01 T02120188  RH  091%=      5-min Rain = 0
KSDS 252230Z 20013KT 22/20 A2989 RMK A01 T02210195  RH  090%=      5-min Rain = 0
KSDS 252235Z 19016G22KT 24/20 A299 RMK A01 T02360204  RH  087%=      5-min Rain = 0
KSDS 252240Z 18019G25KT 25/21 A299 RMK A01 T02460205  RH  083%=      5-min Rain = 0
KSDS 252245Z 17021G28KT 25/21 A299 RMK A01 T02520205  RH  080%=      5-min Rain = 0
KSDS 252250Z 18024G31KT 25/20 A299 RMK A01 T02540199  RH  075%=      5-min Rain = 0
KSDS 252255Z 17021G28KT 26/20 A299 RMK A01 T02570197  RH  073%=      5-min Rain = 0
KSDS 252300Z 17022G29KT 26/19 A299 RMK A01 T02580193  RH  071%=      5-min Rain = 0
KSDS 252305Z 17021G27KT 26/19 A299 RMK A01 T02600191  RH  069%=      5-min Rain = 0
KSDS 252310Z 17021G26KT 26/19 A2991 RMK A01 T02630189  RH  067%=      5-min Rain = 0
KSDS 252315Z 17020G27KT 27/19 A2991 RMK A01 T02660187  RH  065%=      5-min Rain = 0
KSDS 252320Z 17022G28KT 27/18 A2991 RMK A01 T02660184  RH  064%=      5-min Rain = 0
KSDS 252325Z 16023G30KT 27/18 A2991 RMK A01 T02670180  RH  062%=      5-min Rain = 0
KSDS 252330Z 17021G27KT 27/18 A2991 RMK A01 T02680181  RH  062%=      5-min Rain = 0
KSDS 252335Z 17021G29KT 27/18 A2991 RMK A01 T02690179  RH  061%=      5-min Rain = 0
KSDS 252340Z 17020G27KT 27/18 A2991 RMK A01 T02700180  RH  061%=      5-min Rain = 0
KSDS 252345Z 16020G27KT 27/18 A2991 RMK A01 T02700179  RH  061%=      5-min Rain = 0
KSDS 252350Z 17020G26KT 27/18 A2991 RMK A01 T02700178  RH  060%=      5-min Rain = 0
KSDS 252355Z 17018G26KT 27/18 A2991 RMK A01 T02700179  RH  060%=      5-min Rain = 0
KSDS 260000Z 16020G25KT 27/18 A2991 RMK A01 T02700178  RH  060%=      5-min Rain = 0
KSDS 260005Z 16019G25KT 27/18 A2991 RMK A01 T02700177  RH  060%=      5-min Rain = 0
KSDS 260010Z 17019G25KT 27/18 A2991 RMK A01 T02700177  RH  060%=      5-min Rain = 0
KSDS 260015Z 16019G24KT 27/18 A2991 RMK A01 T02690178  RH  061%=      5-min Rain = 0
KSDS 260020Z 16020G25KT 27/18 A2991 RMK A01 T02680176  RH  060%=      5-min Rain = 0
KSDS 260025Z 16018G24KT 27/18 A2991 RMK A01 T02670175  RH  060%=      5-min Rain = 0
KSDS 260030Z 16017G23KT 27/18 A2991 RMK A01 T02660175  RH  060%=      5-min Rain = 0
KSDS 260035Z 16018G23KT 27/17 A2991 RMK A01 T02650174  RH  060%=      5-min Rain = 0
KSDS 260040Z 15019G25KT 26/17 A2991 RMK A01 T02640174  RH  060%=      5-min Rain = 0
KSDS 260045Z 15019G24KT 26/18 A2991 RMK A01 T02630175  RH  062%=      5-min Rain = 0
KSDS 260050Z 16017G23KT 26/18 A2991 RMK A01 T02610175  RH  063%=      5-min Rain = 0
KSDS 260055Z 16018G24KT 26/17 A2991 RMK A01 T02590174  RH  062%=      5-min Rain = 0
KSDS 260100Z 16016KT 26/17 A2991 RMK A01 T02580173  RH  063%=      5-min Rain = 0
KSDS 260105Z 16016KT 26/17 A2992 RMK A01 T02560174  RH  064%=      5-min Rain = 0
KSDS 260110Z 15014KT 25/18 A2992 RMK A01 T02540175  RH  065%=      5-min Rain = 0
KSDS 260115Z 15014G20KT 25/18 A2992 RMK A01 T02520176  RH  066%=      5-min Rain = 0
KSDS 260120Z 15014G19KT 25/18 A2992 RMK A01 T02500176  RH  067%=      5-min Rain = 0
KSDS 260125Z 15017G23KT 25/18 A2992 RMK A01 T02480176  RH  068%=      5-min Rain = 0
KSDS 260130Z 15017G24KT 25/17 A2992 RMK A01 T02470174  RH  067%=      5-min Rain = 0
KSDS 260135Z 15017G22KT 25/17 A2992 RMK A01 T02450174  RH  068%=      5-min Rain = 0
KSDS 260140Z 15016G21KT 24/17 A2992 RMK A01 T02430174  RH  069%=      5-min Rain = 0
KSDS 260145Z 15015G20KT 24/17 A2992 RMK A01 T02410174  RH  070%=      5-min Rain = 0
KSDS 260150Z 15015G21KT 24/17 A2992 RMK A01 T02390174  RH  070%=      5-min Rain = 0
KSDS 260155Z 15015G21KT 24/17 A2993 RMK A01 T02370174  RH  071%=      5-min Rain = 0
KSDS 260200Z 15014KT 24/17 A2993 RMK A01 T02350174  RH  072%=      5-min Rain = 0
KSDS 260205Z 15016G21KT 23/18 A2993 RMK A01 T02340175  RH  073%=      5-min Rain = 0
KSDS 260210Z 15015G21KT 23/18 A2993 RMK A01 T02330175  RH  073%=      5-min Rain = 0
KSDS 260215Z 15015G20KT 23/18 A2993 RMK A01 T02310175  RH  074%=      5-min Rain = 0
KSDS 260220Z 15015G20KT 23/17 A2994 RMK A01 T02300174  RH  074%=      5-min Rain = 0
KSDS 260225Z 15013KT 23/17 A2994 RMK A01 T02280174  RH  075%=      5-min Rain = 0
KSDS 260230Z 15015G21KT 23/17 A2994 RMK A01 T02270173  RH  075%=      5-min Rain = 0
KSDS 260235Z 15016G21KT 23/17 A2994 RMK A01 T02270172  RH  075%=      5-min Rain = 0
KSDS 260240Z 15016G22KT 23/17 A2994 RMK A01 T02270173  RH  075%=      5-min Rain = 0
KSDS 260245Z 15016KT 23/17 A2994 RMK A01 T02260173  RH  076%=      5-min Rain = 0
KSDS 260250Z 14014G19KT 23/17 A2994 RMK A01 T02250173  RH  076%=      5-min Rain = 0
KSDS 260255Z 14013KT 22/17 A2994 RMK A01 T02240173  RH  077%=      5-min Rain = 0
KSDS 260300Z 15013G18KT 22/17 A2995 RMK A01 T02220174  RH  078%=      5-min Rain = 0
KSDS 260305Z 15014G21KT 22/17 A2995 RMK A01 T02210174  RH  078%=      5-min Rain = 0
KSDS 260310Z 15013KT 22/17 A2995 RMK A01 T02210174  RH  078%=      5-min Rain = 0
KSDS 260315Z 15013G19KT 22/17 A2995 RMK A01 T02190174  RH  079%=      5-min Rain = 0
KSDS 260320Z 15013G18KT 22/17 A2995 RMK A01 T02180174  RH  080%=      5-min Rain = 0
KSDS 260325Z 15014KT 22/17 A2995 RMK A01 T02180174  RH  080%=      5-min Rain = 0
KSDS 260330Z 15014KT 22/17 A2995 RMK A01 T02170174  RH  081%=      5-min Rain = 0
KSDS 260335Z 15014KT 22/17 A2996 RMK A01 T02150174  RH  081%=      5-min Rain = 0
KSDS 260340Z 15013KT 21/17 A2996 RMK A01 T02140174  RH  082%=      5-min Rain = 0
KSDS 260345Z 15012KT 21/17 A2996 RMK A01 T02120174  RH  083%=      5-min Rain = 0
KSDS 260350Z 16013KT 21/17 A2996 RMK A01 T02110174  RH  084%=      5-min Rain = 0
KSDS 260355Z 16013KT 21/17 A2997 RMK A01 T02120173  RH  083%=      5-min Rain = 0
KSDS 260400Z 16015G20KT 21/17 A2997 RMK A01 T02130172  RH  081%=      5-min Rain = 0
KSDS 260405Z 16016G22KT 21/17 A2997 RMK A01 T02140169  RH  079%=      5-min Rain = 0
KSDS 260410Z 16016KT 21/17 A2997 RMK A01 T02140167  RH  078%=      5-min Rain = 0
KSDS 260415Z 17014KT 21/17 A2997 RMK A01 T02130165  RH  078%=      5-min Rain = 0
KSDS 260420Z 17013KT 21/17 A2997 RMK A01 T02110165  RH  079%=      5-min Rain = 0
KSDS 260425Z 17013G19KT 21/16 A2997 RMK A01 T02100164  RH  079%=      5-min Rain = 0
KSDS 260430Z 17014KT 21/16 A2997 RMK A01 T02090164  RH  079%=      5-min Rain = 0
KSDS 260435Z 17013G18KT 21/16 A2997 RMK A01 T02090163  RH  079%=      5-min Rain = 0
KSDS 260440Z 18012G19KT 21/16 A2997 RMK A01 T02080162  RH  079%=      5-min Rain = 0
KSDS 260445Z 18012G17KT 21/16 A2997 RMK A01 T02060161  RH  079%=      5-min Rain = 0
KSDS 260450Z 18010KT 20/16 A2997 RMK A01 T02040160  RH  080%=      5-min Rain = 0
KSDS 260455Z 18009KT 20/16 A2997 RMK A01 T02010159  RH  080%=      5-min Rain = 0

Page generated in 0.0385 seconds.